sensor_id;sensor_type;location;lat;lon;timestamp;P1;durP1;ratioP1;P2;durP2;ratioP2
55216;SDS011;41086;46.736;15.666;2022-08-30T00:01:09;104.25;;;15.52;;
55216;SDS011;41086;46.736;15.666;2022-08-30T00:03:43;63.63;;;14.80;;
55216;SDS011;41086;46.736;15.666;2022-08-30T00:06:13;116.22;;;21.90;;
55216;SDS011;41086;46.736;15.666;2022-08-30T00:08:41;132.48;;;18.40;;
55216;SDS011;41086;46.736;15.666;2022-08-30T00:11:12;91.68;;;14.68;;
55216;SDS011;41086;46.736;15.666;2022-08-30T00:13:41;69.35;;;14.93;;
55216;SDS011;41086;46.736;15.666;2022-08-30T00:16:10;37.55;;;11.02;;
55216;SDS011;41086;46.736;15.666;2022-08-30T00:18:38;27.10;;;10.25;;
55216;SDS011;41086;46.736;15.666;2022-08-30T00:21:07;19.13;;;8.48;;
55216;SDS011;41086;46.736;15.666;2022-08-30T00:23:35;16.13;;;8.45;;
55216;SDS011;41086;46.736;15.666;2022-08-30T00:26:08;34.58;;;8.82;;
55216;SDS011;41086;46.736;15.666;2022-08-30T00:28:35;17.05;;;7.72;;
55216;SDS011;41086;46.736;15.666;2022-08-30T00:31:05;17.30;;;7.50;;
55216;SDS011;41086;46.736;15.666;2022-08-30T00:33:33;87.65;;;12.30;;
55216;SDS011;41086;46.736;15.666;2022-08-30T00:38:27;69.85;;;9.00;;
55216;SDS011;41086;46.736;15.666;2022-08-30T00:43:27;83.05;;;10.75;;
55216;SDS011;41086;46.736;15.666;2022-08-30T00:45:59;33.08;;;7.43;;
55216;SDS011;41086;46.736;15.666;2022-08-30T00:48:30;29.58;;;6.70;;
55216;SDS011;41086;46.736;15.666;2022-08-30T00:51:03;31.60;;;8.18;;
55216;SDS011;41086;46.736;15.666;2022-08-30T00:53:35;83.55;;;13.13;;
55216;SDS011;41086;46.736;15.666;2022-08-30T00:56:04;44.67;;;8.32;;
55216;SDS011;41086;46.736;15.666;2022-08-30T00:58:36;30.67;;;6.85;;
55216;SDS011;41086;46.736;15.666;2022-08-30T01:01:08;127.63;;;8.65;;
55216;SDS011;41086;46.736;15.666;2022-08-30T01:03:36;95.75;;;9.93;;
55216;SDS011;41086;46.736;15.666;2022-08-30T01:06:05;87.07;;;8.40;;
55216;SDS011;41086;46.736;15.666;2022-08-30T01:08:33;26.88;;;6.53;;
55216;SDS011;41086;46.736;15.666;2022-08-30T01:11:00;69.47;;;8.32;;
55216;SDS011;41086;46.736;15.666;2022-08-30T01:13:29;93.75;;;10.60;;
55216;SDS011;41086;46.736;15.666;2022-08-30T01:15:58;131.35;;;13.07;;
55216;SDS011;41086;46.736;15.666;2022-08-30T01:18:26;90.00;;;11.32;;
55216;SDS011;41086;46.736;15.666;2022-08-30T01:23:46;52.20;;;7.90;;
55216;SDS011;41086;46.736;15.666;2022-08-30T01:26:15;43.50;;;7.13;;
55216;SDS011;41086;46.736;15.666;2022-08-30T01:28:45;20.85;;;4.63;;
55216;SDS011;41086;46.736;15.666;2022-08-30T01:31:16;49.95;;;7.30;;
55216;SDS011;41086;46.736;15.666;2022-08-30T01:33:44;43.78;;;8.88;;
55216;SDS011;41086;46.736;15.666;2022-08-30T01:36:12;59.95;;;9.10;;
55216;SDS011;41086;46.736;15.666;2022-08-30T01:41:21;65.93;;;10.18;;
55216;SDS011;41086;46.736;15.666;2022-08-30T01:43:52;47.88;;;6.97;;
55216;SDS011;41086;46.736;15.666;2022-08-30T01:46:22;85.82;;;10.27;;
55216;SDS011;41086;46.736;15.666;2022-08-30T01:48:53;92.78;;;11.27;;
55216;SDS011;41086;46.736;15.666;2022-08-30T01:51:25;82.20;;;10.00;;
55216;SDS011;41086;46.736;15.666;2022-08-30T01:53:53;133.82;;;17.70;;
55216;SDS011;41086;46.736;15.666;2022-08-30T01:56:21;158.80;;;16.25;;
55216;SDS011;41086;46.736;15.666;2022-08-30T01:58:49;232.57;;;25.23;;
55216;SDS011;41086;46.736;15.666;2022-08-30T02:01:19;126.78;;;17.33;;
55216;SDS011;41086;46.736;15.666;2022-08-30T02:03:50;98.82;;;13.23;;
55216;SDS011;41086;46.736;15.666;2022-08-30T02:06:20;107.82;;;15.93;;
55216;SDS011;41086;46.736;15.666;2022-08-30T02:08:48;78.82;;;15.68;;
55216;SDS011;41086;46.736;15.666;2022-08-30T02:13:42;42.20;;;7.93;;
55216;SDS011;41086;46.736;15.666;2022-08-30T02:16:12;50.20;;;9.68;;
55216;SDS011;41086;46.736;15.666;2022-08-30T02:18:41;88.32;;;15.30;;
55216;SDS011;41086;46.736;15.666;2022-08-30T02:21:09;124.88;;;19.25;;
55216;SDS011;41086;46.736;15.666;2022-08-30T02:23:36;96.63;;;16.33;;
55216;SDS011;41086;46.736;15.666;2022-08-30T02:26:05;37.33;;;8.73;;
55216;SDS011;41086;46.736;15.666;2022-08-30T02:28:32;73.85;;;12.77;;
55216;SDS011;41086;46.736;15.666;2022-08-30T02:30:59;71.88;;;10.75;;
55216;SDS011;41086;46.736;15.666;2022-08-30T02:33:27;80.30;;;13.20;;
55216;SDS011;41086;46.736;15.666;2022-08-30T02:35:54;158.80;;;18.00;;
55216;SDS011;41086;46.736;15.666;2022-08-30T02:38:22;165.05;;;15.80;;
55216;SDS011;41086;46.736;15.666;2022-08-30T02:40:50;166.65;;;19.15;;
55216;SDS011;41086;46.736;15.666;2022-08-30T02:43:17;147.98;;;14.38;;
55216;SDS011;41086;46.736;15.666;2022-08-30T02:45:46;151.73;;;15.77;;
55216;SDS011;41086;46.736;15.666;2022-08-30T02:48:13;103.70;;;13.10;;
55216;SDS011;41086;46.736;15.666;2022-08-30T02:50:41;125.13;;;13.95;;
55216;SDS011;41086;46.736;15.666;2022-08-30T02:53:11;162.32;;;14.23;;
55216;SDS011;41086;46.736;15.666;2022-08-30T02:55:44;148.52;;;16.20;;
55216;SDS011;41086;46.736;15.666;2022-08-30T02:58:11;139.45;;;15.40;;
55216;SDS011;41086;46.736;15.666;2022-08-30T03:00:39;154.20;;;14.65;;
55216;SDS011;41086;46.736;15.666;2022-08-30T03:03:08;187.88;;;16.40;;
55216;SDS011;41086;46.736;15.666;2022-08-30T03:05:40;177.52;;;15.57;;
55216;SDS011;41086;46.736;15.666;2022-08-30T03:08:07;170.48;;;17.08;;
55216;SDS011;41086;46.736;15.666;2022-08-30T03:10:36;173.77;;;19.38;;
55216;SDS011;41086;46.736;15.666;2022-08-30T03:13:04;126.80;;;12.98;;
55216;SDS011;41086;46.736;15.666;2022-08-30T03:15:33;115.75;;;14.00;;
55216;SDS011;41086;46.736;15.666;2022-08-30T03:18:01;217.27;;;20.00;;
55216;SDS011;41086;46.736;15.666;2022-08-30T03:20:28;165.07;;;18.25;;
55216;SDS011;41086;46.736;15.666;2022-08-30T03:22:55;126.53;;;16.80;;
55216;SDS011;41086;46.736;15.666;2022-08-30T03:25:23;153.23;;;14.15;;
55216;SDS011;41086;46.736;15.666;2022-08-30T03:27:50;143.98;;;17.75;;
55216;SDS011;41086;46.736;15.666;2022-08-30T03:30:17;120.13;;;16.20;;
55216;SDS011;41086;46.736;15.666;2022-08-30T03:32:45;103.18;;;14.85;;
55216;SDS011;41086;46.736;15.666;2022-08-30T03:37:45;39.88;;;12.52;;
55216;SDS011;41086;46.736;15.666;2022-08-30T03:40:13;44.20;;;13.70;;
55216;SDS011;41086;46.736;15.666;2022-08-30T03:42:42;78.35;;;15.15;;
55216;SDS011;41086;46.736;15.666;2022-08-30T03:45:10;40.15;;;10.13;;
55216;SDS011;41086;46.736;15.666;2022-08-30T03:47:38;62.00;;;12.82;;
55216;SDS011;41086;46.736;15.666;2022-08-30T03:50:06;26.88;;;9.98;;
55216;SDS011;41086;46.736;15.666;2022-08-30T03:52:34;18.40;;;7.78;;
55216;SDS011;41086;46.736;15.666;2022-08-30T03:55:01;17.90;;;8.40;;
55216;SDS011;41086;46.736;15.666;2022-08-30T03:59:56;14.73;;;6.75;;
55216;SDS011;41086;46.736;15.666;2022-08-30T04:02:24;14.45;;;6.13;;
55216;SDS011;41086;46.736;15.666;2022-08-30T04:04:51;13.32;;;7.35;;
55216;SDS011;41086;46.736;15.666;2022-08-30T04:07:21;13.02;;;6.82;;
55216;SDS011;41086;46.736;15.666;2022-08-30T04:09:48;12.13;;;6.88;;
55216;SDS011;41086;46.736;15.666;2022-08-30T04:12:17;18.05;;;7.13;;
55216;SDS011;41086;46.736;15.666;2022-08-30T04:14:48;10.90;;;7.30;;
55216;SDS011;41086;46.736;15.666;2022-08-30T04:17:16;21.38;;;9.15;;
55216;SDS011;41086;46.736;15.666;2022-08-30T04:19:44;21.27;;;10.57;;
55216;SDS011;41086;46.736;15.666;2022-08-30T04:24:41;22.00;;;8.88;;
55216;SDS011;41086;46.736;15.666;2022-08-30T04:27:08;68.35;;;11.63;;
55216;SDS011;41086;46.736;15.666;2022-08-30T04:29:35;114.75;;;13.68;;
55216;SDS011;41086;46.736;15.666;2022-08-30T04:34:30;148.30;;;14.90;;
55216;SDS011;41086;46.736;15.666;2022-08-30T04:37:03;220.50;;;18.25;;
55216;SDS011;41086;46.736;15.666;2022-08-30T04:39:30;193.05;;;15.65;;
55216;SDS011;41086;46.736;15.666;2022-08-30T04:44:24;145.88;;;13.95;;
55216;SDS011;41086;46.736;15.666;2022-08-30T04:47:00;114.35;;;10.88;;
55216;SDS011;41086;46.736;15.666;2022-08-30T04:49:28;167.93;;;15.75;;
55216;SDS011;41086;46.736;15.666;2022-08-30T04:51:54;83.00;;;12.52;;
55216;SDS011;41086;46.736;15.666;2022-08-30T04:56:48;206.63;;;16.60;;
55216;SDS011;41086;46.736;15.666;2022-08-30T05:01:43;171.40;;;15.75;;
55216;SDS011;41086;46.736;15.666;2022-08-30T05:04:12;161.77;;;14.18;;
55216;SDS011;41086;46.736;15.666;2022-08-30T05:06:40;116.13;;;14.15;;
55216;SDS011;41086;46.736;15.666;2022-08-30T05:09:07;184.00;;;19.27;;
55216;SDS011;41086;46.736;15.666;2022-08-30T05:11:34;122.97;;;12.90;;
55216;SDS011;41086;46.736;15.666;2022-08-30T05:14:02;64.50;;;10.23;;
55216;SDS011;41086;46.736;15.666;2022-08-30T05:16:29;84.05;;;13.38;;
55216;SDS011;41086;46.736;15.666;2022-08-30T05:18:56;105.15;;;14.43;;
55216;SDS011;41086;46.736;15.666;2022-08-30T05:21:24;156.52;;;16.73;;
55216;SDS011;41086;46.736;15.666;2022-08-30T05:23:53;89.38;;;14.40;;
55216;SDS011;41086;46.736;15.666;2022-08-30T05:26:24;303.05;;;33.10;;
55216;SDS011;41086;46.736;15.666;2022-08-30T05:28:56;97.25;;;15.18;;
55216;SDS011;41086;46.736;15.666;2022-08-30T05:31:33;182.60;;;28.27;;
55216;SDS011;41086;46.736;15.666;2022-08-30T05:34:01;133.60;;;19.50;;
55216;SDS011;41086;46.736;15.666;2022-08-30T05:36:29;285.02;;;49.63;;
55216;SDS011;41086;46.736;15.666;2022-08-30T05:38:59;86.93;;;17.77;;
55216;SDS011;41086;46.736;15.666;2022-08-30T05:41:26;51.65;;;11.43;;
55216;SDS011;41086;46.736;15.666;2022-08-30T05:46:21;36.65;;;10.13;;
55216;SDS011;41086;46.736;15.666;2022-08-30T05:48:48;39.50;;;18.35;;
55216;SDS011;41086;46.736;15.666;2022-08-30T05:51:18;73.30;;;38.50;;
55216;SDS011;41086;46.736;15.666;2022-08-30T05:53:47;41.20;;;16.65;;
55216;SDS011;41086;46.736;15.666;2022-08-30T05:56:18;27.80;;;14.15;;
55216;SDS011;41086;46.736;15.666;2022-08-30T05:58:47;18.90;;;10.80;;
55216;SDS011;41086;46.736;15.666;2022-08-30T06:01:18;19.08;;;10.13;;
55216;SDS011;41086;46.736;15.666;2022-08-30T06:03:54;16.63;;;10.35;;
55216;SDS011;41086;46.736;15.666;2022-08-30T06:06:24;12.38;;;7.90;;
55216;SDS011;41086;46.736;15.666;2022-08-30T06:08:52;11.25;;;7.82;;
55216;SDS011;41086;46.736;15.666;2022-08-30T06:13:47;15.85;;;8.68;;
55216;SDS011;41086;46.736;15.666;2022-08-30T06:16:15;11.32;;;7.32;;
55216;SDS011;41086;46.736;15.666;2022-08-30T06:18:46;11.13;;;7.75;;
55216;SDS011;41086;46.736;15.666;2022-08-30T06:21:15;11.57;;;6.65;;
55216;SDS011;41086;46.736;15.666;2022-08-30T06:23:56;12.70;;;7.30;;
55216;SDS011;41086;46.736;15.666;2022-08-30T06:26:23;10.02;;;6.55;;
55216;SDS011;41086;46.736;15.666;2022-08-30T06:28:51;15.77;;;8.75;;
55216;SDS011;41086;46.736;15.666;2022-08-30T06:33:46;11.10;;;7.07;;
55216;SDS011;41086;46.736;15.666;2022-08-30T06:36:18;12.32;;;7.22;;
55216;SDS011;41086;46.736;15.666;2022-08-30T06:38:48;12.18;;;7.35;;
55216;SDS011;41086;46.736;15.666;2022-08-30T06:41:18;10.13;;;6.82;;
55216;SDS011;41086;46.736;15.666;2022-08-30T06:43:47;11.88;;;7.07;;
55216;SDS011;41086;46.736;15.666;2022-08-30T06:46:17;8.57;;;6.90;;
55216;SDS011;41086;46.736;15.666;2022-08-30T06:48:47;14.98;;;8.18;;
55216;SDS011;41086;46.736;15.666;2022-08-30T06:51:17;9.57;;;7.07;;
55216;SDS011;41086;46.736;15.666;2022-08-30T06:53:46;9.75;;;7.43;;
55216;SDS011;41086;46.736;15.666;2022-08-30T06:56:14;10.07;;;6.90;;
55216;SDS011;41086;46.736;15.666;2022-08-30T06:58:43;8.25;;;6.28;;
55216;SDS011;41086;46.736;15.666;2022-08-30T07:01:11;10.40;;;7.15;;
55216;SDS011;41086;46.736;15.666;2022-08-30T07:03:40;9.68;;;6.28;;
55216;SDS011;41086;46.736;15.666;2022-08-30T07:06:07;9.02;;;5.65;;
55216;SDS011;41086;46.736;15.666;2022-08-30T07:08:35;9.25;;;6.30;;
55216;SDS011;41086;46.736;15.666;2022-08-30T07:11:04;8.68;;;6.38;;
55216;SDS011;41086;46.736;15.666;2022-08-30T07:13:33;7.93;;;5.72;;
55216;SDS011;41086;46.736;15.666;2022-08-30T07:16:08;7.00;;;5.25;;
55216;SDS011;41086;46.736;15.666;2022-08-30T07:18:39;9.38;;;5.93;;
55216;SDS011;41086;46.736;15.666;2022-08-30T07:21:41;8.15;;;6.47;;
55216;SDS011;41086;46.736;15.666;2022-08-30T07:24:09;9.10;;;6.17;;
55216;SDS011;41086;46.736;15.666;2022-08-30T07:26:39;8.70;;;5.90;;
55216;SDS011;41086;46.736;15.666;2022-08-30T07:29:08;7.32;;;5.68;;
55216;SDS011;41086;46.736;15.666;2022-08-30T07:31:36;9.07;;;5.53;;
55216;SDS011;41086;46.736;15.666;2022-08-30T07:34:04;6.45;;;5.05;;
55216;SDS011;41086;46.736;15.666;2022-08-30T07:36:33;8.30;;;5.70;;
55216;SDS011;41086;46.736;15.666;2022-08-30T07:39:02;8.23;;;5.72;;
55216;SDS011;41086;46.736;15.666;2022-08-30T07:41:32;9.30;;;5.80;;
55216;SDS011;41086;46.736;15.666;2022-08-30T07:44:01;7.75;;;6.05;;
55216;SDS011;41086;46.736;15.666;2022-08-30T07:46:28;6.55;;;5.28;;
55216;SDS011;41086;46.736;15.666;2022-08-30T07:48:57;8.32;;;5.20;;
55216;SDS011;41086;46.736;15.666;2022-08-30T07:51:35;12.02;;;5.20;;
55216;SDS011;41086;46.736;15.666;2022-08-30T07:54:02;8.43;;;5.05;;
55216;SDS011;41086;46.736;15.666;2022-08-30T07:56:30;8.45;;;5.50;;
55216;SDS011;41086;46.736;15.666;2022-08-30T07:58:57;6.88;;;5.00;;
55216;SDS011;41086;46.736;15.666;2022-08-30T08:01:24;12.50;;;5.07;;
55216;SDS011;41086;46.736;15.666;2022-08-30T08:03:51;8.40;;;4.72;;
55216;SDS011;41086;46.736;15.666;2022-08-30T08:06:19;5.38;;;4.43;;
55216;SDS011;41086;46.736;15.666;2022-08-30T08:08:48;6.50;;;4.18;;
55216;SDS011;41086;46.736;15.666;2022-08-30T08:11:22;5.25;;;4.20;;
55216;SDS011;41086;46.736;15.666;2022-08-30T08:13:53;7.63;;;4.47;;
55216;SDS011;41086;46.736;15.666;2022-08-30T08:16:22;5.10;;;4.10;;
55216;SDS011;41086;46.736;15.666;2022-08-30T08:18:52;12.85;;;4.47;;
55216;SDS011;41086;46.736;15.666;2022-08-30T08:21:20;7.68;;;4.57;;
55216;SDS011;41086;46.736;15.666;2022-08-30T08:23:48;5.60;;;4.18;;
55216;SDS011;41086;46.736;15.666;2022-08-30T08:26:17;5.07;;;3.90;;
55216;SDS011;41086;46.736;15.666;2022-08-30T08:28:44;6.28;;;4.28;;
55216;SDS011;41086;46.736;15.666;2022-08-30T08:31:16;9.75;;;4.28;;
55216;SDS011;41086;46.736;15.666;2022-08-30T08:33:45;6.88;;;4.00;;
55216;SDS011;41086;46.736;15.666;2022-08-30T08:36:13;7.07;;;3.95;;
55216;SDS011;41086;46.736;15.666;2022-08-30T08:38:41;7.78;;;3.85;;
55216;SDS011;41086;46.736;15.666;2022-08-30T08:41:15;6.45;;;4.05;;
55216;SDS011;41086;46.736;15.666;2022-08-30T08:43:50;7.13;;;3.85;;
55216;SDS011;41086;46.736;15.666;2022-08-30T08:48:48;5.68;;;3.60;;
55216;SDS011;41086;46.736;15.666;2022-08-30T08:51:26;4.93;;;3.60;;
55216;SDS011;41086;46.736;15.666;2022-08-30T08:54:35;7.28;;;3.60;;
55216;SDS011;41086;46.736;15.666;2022-08-30T08:57:34;5.00;;;3.63;;
55216;SDS011;41086;46.736;15.666;2022-08-30T09:00:05;6.95;;;4.03;;
55216;SDS011;41086;46.736;15.666;2022-08-30T09:02:42;5.90;;;3.92;;
55216;SDS011;41086;46.736;15.666;2022-08-30T09:05:10;5.65;;;4.18;;
55216;SDS011;41086;46.736;15.666;2022-08-30T09:07:44;7.72;;;3.97;;
55216;SDS011;41086;46.736;15.666;2022-08-30T09:10:16;4.68;;;4.00;;
55216;SDS011;41086;46.736;15.666;2022-08-30T09:12:55;7.75;;;4.00;;
55216;SDS011;41086;46.736;15.666;2022-08-30T09:15:26;5.93;;;3.67;;
55216;SDS011;41086;46.736;15.666;2022-08-30T09:17:59;7.40;;;4.35;;
55216;SDS011;41086;46.736;15.666;2022-08-30T09:20:31;6.95;;;4.28;;
55216;SDS011;41086;46.736;15.666;2022-08-30T09:25:52;7.32;;;3.78;;
55216;SDS011;41086;46.736;15.666;2022-08-30T09:28:26;8.50;;;4.25;;
55216;SDS011;41086;46.736;15.666;2022-08-30T09:31:22;5.63;;;3.78;;
55216;SDS011;41086;46.736;15.666;2022-08-30T09:34:07;5.35;;;3.53;;
55216;SDS011;41086;46.736;15.666;2022-08-30T09:36:42;7.68;;;3.42;;
55216;SDS011;41086;46.736;15.666;2022-08-30T09:39:16;7.25;;;3.38;;
55216;SDS011;41086;46.736;15.666;2022-08-30T09:41:46;4.78;;;2.95;;
55216;SDS011;41086;46.736;15.666;2022-08-30T09:46:49;8.63;;;4.25;;
55216;SDS011;41086;46.736;15.666;2022-08-30T09:49:32;6.28;;;3.00;;
55216;SDS011;41086;46.736;15.666;2022-08-30T10:01:06;8.05;;;3.20;;
55216;SDS011;41086;46.736;15.666;2022-08-30T10:06:25;5.93;;;3.30;;
55216;SDS011;41086;46.736;15.666;2022-08-30T10:17:46;4.40;;;2.90;;
55216;SDS011;41086;46.736;15.666;2022-08-30T10:22:51;6.28;;;2.92;;
55216;SDS011;41086;46.736;15.666;2022-08-30T10:30:55;4.40;;;2.95;;
55216;SDS011;41086;46.736;15.666;2022-08-30T10:33:27;7.78;;;3.65;;
55216;SDS011;41086;46.736;15.666;2022-08-30T10:36:02;6.35;;;3.05;;
55216;SDS011;41086;46.736;15.666;2022-08-30T10:38:33;5.93;;;3.25;;
55216;SDS011;41086;46.736;15.666;2022-08-30T10:43:53;5.72;;;3.15;;
55216;SDS011;41086;46.736;15.666;2022-08-30T10:49:21;4.15;;;2.70;;
55216;SDS011;41086;46.736;15.666;2022-08-30T10:54:50;4.93;;;3.28;;
55216;SDS011;41086;46.736;15.666;2022-08-30T10:57:21;7.05;;;3.40;;
55216;SDS011;41086;46.736;15.666;2022-08-30T10:59:59;4.68;;;3.20;;
55216;SDS011;41086;46.736;15.666;2022-08-30T11:13:31;6.10;;;3.42;;
55216;SDS011;41086;46.736;15.666;2022-08-30T11:16:10;4.40;;;2.85;;
55216;SDS011;41086;46.736;15.666;2022-08-30T11:21:18;4.77;;;3.17;;
55216;SDS011;41086;46.736;15.666;2022-08-30T11:31:54;4.95;;;2.95;;
55216;SDS011;41086;46.736;15.666;2022-08-30T11:40:07;3.97;;;2.58;;
55216;SDS011;41086;46.736;15.666;2022-08-30T11:53:20;21.33;;;18.58;;
55216;SDS011;41086;46.736;15.666;2022-08-30T11:56:21;7.93;;;4.03;;
55216;SDS011;41086;46.736;15.666;2022-08-30T11:59:00;6.15;;;3.28;;
55216;SDS011;41086;46.736;15.666;2022-08-30T12:01:51;7.85;;;2.83;;
55216;SDS011;41086;46.736;15.666;2022-08-30T12:06:46;4.05;;;2.65;;
55216;SDS011;41086;46.736;15.666;2022-08-30T12:20:45;7.95;;;2.88;;
55216;SDS011;41086;46.736;15.666;2022-08-30T12:25:49;4.93;;;2.40;;
55216;SDS011;41086;46.736;15.666;2022-08-30T12:28:37;5.60;;;3.28;;
55216;SDS011;41086;46.736;15.666;2022-08-30T12:31:25;6.07;;;2.72;;
55216;SDS011;41086;46.736;15.666;2022-08-30T12:33:53;3.83;;;2.55;;
55216;SDS011;41086;46.736;15.666;2022-08-30T12:36:36;6.75;;;3.13;;
55216;SDS011;41086;46.736;15.666;2022-08-30T12:41:34;4.30;;;3.15;;
55216;SDS011;41086;46.736;15.666;2022-08-30T12:44:11;4.45;;;2.70;;
55216;SDS011;41086;46.736;15.666;2022-08-30T12:46:42;4.30;;;2.70;;
55216;SDS011;41086;46.736;15.666;2022-08-30T12:49:14;9.23;;;3.17;;
55216;SDS011;41086;46.736;15.666;2022-08-30T12:51:43;3.50;;;2.90;;
55216;SDS011;41086;46.736;15.666;2022-08-30T12:54:16;4.38;;;2.90;;
55216;SDS011;41086;46.736;15.666;2022-08-30T12:56:50;5.32;;;2.67;;
55216;SDS011;41086;46.736;15.666;2022-08-30T13:02:13;7.35;;;2.97;;
55216;SDS011;41086;46.736;15.666;2022-08-30T13:04:46;3.72;;;2.95;;
55216;SDS011;41086;46.736;15.666;2022-08-30T13:09:58;4.47;;;3.03;;
55216;SDS011;41086;46.736;15.666;2022-08-30T13:12:28;4.47;;;2.63;;
55216;SDS011;41086;46.736;15.666;2022-08-30T13:15:09;5.05;;;3.17;;
55216;SDS011;41086;46.736;15.666;2022-08-30T13:25:36;3.53;;;2.78;;
55216;SDS011;41086;46.736;15.666;2022-08-30T13:28:05;3.58;;;2.67;;
55216;SDS011;41086;46.736;15.666;2022-08-30T13:30:33;5.13;;;2.58;;
55216;SDS011;41086;46.736;15.666;2022-08-30T13:33:00;3.55;;;2.58;;
55216;SDS011;41086;46.736;15.666;2022-08-30T13:35:28;4.18;;;2.85;;
55216;SDS011;41086;46.736;15.666;2022-08-30T13:37:56;3.22;;;2.67;;
55216;SDS011;41086;46.736;15.666;2022-08-30T13:40:25;4.05;;;2.67;;
55216;SDS011;41086;46.736;15.666;2022-08-30T13:42:53;3.83;;;2.92;;
55216;SDS011;41086;46.736;15.666;2022-08-30T13:45:20;7.63;;;2.88;;
55216;SDS011;41086;46.736;15.666;2022-08-30T13:48:07;4.68;;;2.72;;
55216;SDS011;41086;46.736;15.666;2022-08-30T13:50:36;4.20;;;2.70;;
55216;SDS011;41086;46.736;15.666;2022-08-30T13:53:04;4.90;;;2.70;;
55216;SDS011;41086;46.736;15.666;2022-08-30T13:55:36;5.18;;;2.95;;
55216;SDS011;41086;46.736;15.666;2022-08-30T13:58:06;4.30;;;2.45;;
55216;SDS011;41086;46.736;15.666;2022-08-30T14:00:34;6.25;;;2.92;;
55216;SDS011;41086;46.736;15.666;2022-08-30T14:03:03;4.28;;;2.70;;
55216;SDS011;41086;46.736;15.666;2022-08-30T14:05:31;5.95;;;3.50;;
55216;SDS011;41086;46.736;15.666;2022-08-30T14:08:21;15.73;;;13.27;;
55216;SDS011;41086;46.736;15.666;2022-08-30T14:11:09;8.02;;;3.30;;
55216;SDS011;41086;46.736;15.666;2022-08-30T14:13:38;6.32;;;2.78;;
55216;SDS011;41086;46.736;15.666;2022-08-30T14:16:26;4.40;;;3.05;;
55216;SDS011;41086;46.736;15.666;2022-08-30T14:18:54;5.07;;;3.17;;
55216;SDS011;41086;46.736;15.666;2022-08-30T14:21:21;5.32;;;2.90;;
55216;SDS011;41086;46.736;15.666;2022-08-30T14:23:50;9.05;;;3.28;;
55216;SDS011;41086;46.736;15.666;2022-08-30T14:26:28;6.55;;;2.97;;
55216;SDS011;41086;46.736;15.666;2022-08-30T14:28:58;4.28;;;2.60;;
55216;SDS011;41086;46.736;15.666;2022-08-30T14:31:27;4.38;;;2.63;;
55216;SDS011;41086;46.736;15.666;2022-08-30T14:33:55;7.40;;;2.75;;
55216;SDS011;41086;46.736;15.666;2022-08-30T14:36:23;6.00;;;3.10;;
55216;SDS011;41086;46.736;15.666;2022-08-30T14:38:50;5.72;;;3.00;;
55216;SDS011;41086;46.736;15.666;2022-08-30T14:41:17;7.75;;;3.10;;
55216;SDS011;41086;46.736;15.666;2022-08-30T14:43:44;6.50;;;3.13;;
55216;SDS011;41086;46.736;15.666;2022-08-30T14:46:11;4.45;;;3.00;;
55216;SDS011;41086;46.736;15.666;2022-08-30T14:48:38;7.13;;;3.00;;
55216;SDS011;41086;46.736;15.666;2022-08-30T14:51:12;6.07;;;3.00;;
55216;SDS011;41086;46.736;15.666;2022-08-30T14:53:42;3.53;;;2.90;;
55216;SDS011;41086;46.736;15.666;2022-08-30T14:56:10;5.93;;;2.83;;
55216;SDS011;41086;46.736;15.666;2022-08-30T14:58:40;4.50;;;2.70;;
55216;SDS011;41086;46.736;15.666;2022-08-30T15:01:08;8.55;;;3.33;;
55216;SDS011;41086;46.736;15.666;2022-08-30T15:03:38;5.22;;;3.00;;
55216;SDS011;41086;46.736;15.666;2022-08-30T15:06:06;5.35;;;2.70;;
55216;SDS011;41086;46.736;15.666;2022-08-30T15:08:34;4.57;;;2.78;;
55216;SDS011;41086;46.736;15.666;2022-08-30T15:11:06;7.97;;;2.83;;
55216;SDS011;41086;46.736;15.666;2022-08-30T15:13:34;3.53;;;2.40;;
55216;SDS011;41086;46.736;15.666;2022-08-30T15:16:01;4.55;;;3.05;;
55216;SDS011;41086;46.736;15.666;2022-08-30T15:18:34;5.68;;;2.90;;
55216;SDS011;41086;46.736;15.666;2022-08-30T15:21:01;4.82;;;3.22;;
55216;SDS011;41086;46.736;15.666;2022-08-30T15:23:28;10.40;;;3.47;;
55216;SDS011;41086;46.736;15.666;2022-08-30T15:25:55;4.22;;;2.80;;
55216;SDS011;41086;46.736;15.666;2022-08-30T15:28:22;5.07;;;2.92;;
55216;SDS011;41086;46.736;15.666;2022-08-30T15:30:49;5.40;;;3.00;;
55216;SDS011;41086;46.736;15.666;2022-08-30T15:33:16;4.47;;;2.83;;
55216;SDS011;41086;46.736;15.666;2022-08-30T15:35:42;7.20;;;3.05;;
55216;SDS011;41086;46.736;15.666;2022-08-30T15:38:09;5.88;;;2.97;;
55216;SDS011;41086;46.736;15.666;2022-08-30T15:40:37;7.82;;;3.00;;
55216;SDS011;41086;46.736;15.666;2022-08-30T15:43:05;4.78;;;2.47;;
55216;SDS011;41086;46.736;15.666;2022-08-30T15:45:32;5.38;;;3.15;;
55216;SDS011;41086;46.736;15.666;2022-08-30T15:47:58;161.85;;;120.57;;
55216;SDS011;41086;46.736;15.666;2022-08-30T15:50:26;18.98;;;16.73;;
55216;SDS011;41086;46.736;15.666;2022-08-30T15:52:53;9.32;;;3.20;;
55216;SDS011;41086;46.736;15.666;2022-08-30T15:55:20;6.35;;;3.28;;
55216;SDS011;41086;46.736;15.666;2022-08-30T15:57:47;3.88;;;2.72;;
55216;SDS011;41086;46.736;15.666;2022-08-30T16:00:14;3.83;;;2.97;;
55216;SDS011;41086;46.736;15.666;2022-08-30T16:02:41;3.72;;;2.28;;
55216;SDS011;41086;46.736;15.666;2022-08-30T16:05:09;4.68;;;2.80;;
55216;SDS011;41086;46.736;15.666;2022-08-30T16:07:36;5.53;;;3.25;;
55216;SDS011;41086;46.736;15.666;2022-08-30T16:10:06;5.68;;;3.03;;
55216;SDS011;41086;46.736;15.666;2022-08-30T16:12:35;5.00;;;2.85;;
55216;SDS011;41086;46.736;15.666;2022-08-30T16:15:02;7.15;;;3.00;;
55216;SDS011;41086;46.736;15.666;2022-08-30T16:17:29;4.05;;;2.80;;
55216;SDS011;41086;46.736;15.666;2022-08-30T16:19:56;4.75;;;3.45;;
55216;SDS011;41086;46.736;15.666;2022-08-30T16:22:24;4.65;;;2.50;;
55216;SDS011;41086;46.736;15.666;2022-08-30T16:24:51;3.40;;;2.50;;
55216;SDS011;41086;46.736;15.666;2022-08-30T16:27:19;4.13;;;2.83;;
55216;SDS011;41086;46.736;15.666;2022-08-30T16:29:46;5.85;;;3.20;;
55216;SDS011;41086;46.736;15.666;2022-08-30T16:32:15;5.50;;;3.10;;
55216;SDS011;41086;46.736;15.666;2022-08-30T16:34:43;4.25;;;2.70;;
55216;SDS011;41086;46.736;15.666;2022-08-30T16:37:10;5.53;;;2.60;;
55216;SDS011;41086;46.736;15.666;2022-08-30T16:39:37;21.08;;;14.07;;
55216;SDS011;41086;46.736;15.666;2022-08-30T16:42:04;4.60;;;2.90;;
55216;SDS011;41086;46.736;15.666;2022-08-30T16:44:33;5.82;;;2.95;;
55216;SDS011;41086;46.736;15.666;2022-08-30T16:47:01;4.55;;;3.17;;
55216;SDS011;41086;46.736;15.666;2022-08-30T16:49:29;4.93;;;2.92;;
55216;SDS011;41086;46.736;15.666;2022-08-30T16:51:57;7.10;;;3.03;;
55216;SDS011;41086;46.736;15.666;2022-08-30T16:54:24;8.30;;;3.50;;
55216;SDS011;41086;46.736;15.666;2022-08-30T16:56:51;7.43;;;3.42;;
55216;SDS011;41086;46.736;15.666;2022-08-30T16:59:22;4.68;;;3.25;;
55216;SDS011;41086;46.736;15.666;2022-08-30T17:01:49;14.25;;;3.60;;
55216;SDS011;41086;46.736;15.666;2022-08-30T17:04:16;5.95;;;3.33;;
55216;SDS011;41086;46.736;15.666;2022-08-30T17:06:45;5.65;;;3.65;;
55216;SDS011;41086;46.736;15.666;2022-08-30T17:09:15;7.18;;;3.38;;
55216;SDS011;41086;46.736;15.666;2022-08-30T17:11:43;5.32;;;3.08;;
55216;SDS011;41086;46.736;15.666;2022-08-30T17:14:11;7.05;;;3.70;;